Time;durP1;ratioP1;P1;durP2;ratioP2;P2;SDS_P1;SDS_P2;PMS_P1;PMS_P2;Temp;Humidity;BMP_temperature;BMP_pressure;BME280_temperature;BME280_humidity;BME280_pressure;Samples;Min_cycle;Max_cycle;Signal;HPM_P1;HPM_P2
2021/12/25 00:01:47;;;;;;;;;;;4.20;99.90;;;4.14;66.26;97405.19;5001011;28;19925;-80
2021/12/25 00:04:13;;;;;;;;;;;4.10;99.90;;;4.25;66.04;97408.72;5017470;28;20004;-80
2021/12/25 00:06:39;;;;;;;;;;;4.10;99.90;;;4.15;66.70;97395.28;5017662;28;19929;-80
2021/12/25 00:09:06;;;;;;;;;;;4.10;99.90;;;4.08;66.18;97408.94;4999924;28;20270;-80
2021/12/25 00:11:32;;;;;;;;;;;4.10;99.90;;;4.06;66.63;97411.06;5035825;28;19994;-80
2021/12/25 00:13:58;;;;;;;;;;;4.10;99.90;;;4.04;66.47;97413.22;5018604;28;19929;-80
2021/12/25 00:16:24;;;;;;;;;;;4.10;99.90;;;4.01;66.35;97411.06;5001161;28;19975;-80
2021/12/25 00:18:52;;;;;;;;;;;4.10;99.90;;;3.94;66.88;97413.19;5016504;28;20460;-80
2021/12/25 00:21:18;;;;;;;;;;;4.10;99.90;;;3.94;66.95;97423.13;5001171;28;20294;-80
2021/12/25 00:23:44;;;;;;;;;;;4.00;99.90;;;3.96;66.13;97418.31;5007213;28;19929;-80
2021/12/25 00:26:24;;;;;;;;;;;4.00;99.90;;;4.01;67.29;97424.47;5016650;28;19975;-80
2021/12/25 00:29:01;;;;;;;;;;;4.00;99.90;;;4.06;66.62;97434.44;5032206;28;20301;-80
2021/12/25 00:31:49;;;;;;;;;;;4.00;99.90;;;3.99;66.35;97445.41;5002172;28;20007;-80
2021/12/25 00:34:15;;;;;;;;;;;4.00;99.90;;;3.97;66.93;97436.00;5002858;28;19929;-80
2021/12/25 00:36:41;;;;;;;;;;;4.00;99.90;;;4.02;66.40;97458.31;5015965;28;19928;-80
2021/12/25 00:39:07;;;;;;;;;;;4.00;99.90;;;4.02;66.40;97468.22;5052695;28;19932;-80
2021/12/25 00:41:33;;;;;;;;;;;4.10;99.90;;;3.99;66.44;97458.00;5016821;28;19952;-80
2021/12/25 00:43:59;;;;;;;;;;;4.10;99.90;;;4.11;65.67;97464.75;5028861;28;19968;-80
2021/12/25 00:46:25;;;;;;;;;;;4.00;99.90;;;4.07;66.32;97471.75;4999232;28;19935;-80
2021/12/25 00:48:51;;;;;;;;;;;4.00;99.90;;;3.96;66.04;97471.97;5017219;28;20415;-80
2021/12/25 00:51:17;;;;;;;;;;;4.00;99.90;;;3.86;65.87;97486.94;5004149;28;19999;-80
2021/12/25 00:53:43;;;;;;;;;;;3.90;99.90;;;3.82;66.19;97482.38;5000702;28;19936;-80
2021/12/25 00:56:09;;;;;;;;;;;3.90;99.90;;;3.85;66.37;97481.84;5015847;28;19929;-80
2021/12/25 00:58:35;;;;;;;;;;;3.80;99.90;;;3.89;66.77;97486.44;5017869;28;20004;-80
2021/12/25 01:01:01;;;;;;;;;;;3.90;99.90;;;3.90;66.46;97501.47;5036856;28;19925;-80
2021/12/25 01:03:27;;;;;;;;;;;3.90;99.90;;;3.87;67.05;97510.03;5001453;28;19936;-80
2021/12/25 01:05:53;;;;;;;;;;;3.80;99.90;;;3.84;67.11;97518.59;5013657;28;19957;-80
2021/12/25 01:08:18;;;;;;;;;;;3.80;99.90;;;3.80;66.52;97509.47;5018898;28;19931;-80
2021/12/25 01:10:45;;;;;;;;;;;3.80;99.90;;;3.78;66.82;97516.94;5025856;28;19935;-80
2021/12/25 01:13:34;;;;;;;;;;;3.80;99.90;;;3.72;67.22;97530.63;5004568;28;19936;-80
2021/12/25 01:26:54;;;;;;;;;;;3.80;99.90;;;3.85;67.15;97543.56;5032272;28;20118;-80
2021/12/25 01:37:16;;;;;;;;;;;3.70;99.90;;;3.73;66.50;97551.00;5020015;28;19929;-80
2021/12/25 01:39:50;;;;;;;;;;;3.70;99.90;;;3.78;66.88;97556.38;5018450;28;19933;-80
2021/12/25 01:48:05;;;;;;;;;;;3.80;99.90;;;3.83;66.15;97561.78;4948764;28;19930;-80
2021/12/25 01:50:31;;;;;;;;;;;3.80;99.90;;;4.02;65.64;97562.97;4958271;28;19968;-80
2021/12/25 01:52:56;;;;;;;;;;;3.80;99.90;;;3.97;66.03;97562.94;4973751;28;20656;-80
2021/12/25 01:55:27;;;;;;;;;;;3.80;99.90;;;3.78;65.48;97565.25;5000499;28;19925;-80
2021/12/25 01:57:53;;;;;;;;;;;3.80;99.90;;;3.76;66.44;97558.50;5032839;28;20019;-80
2021/12/25 02:00:27;;;;;;;;;;;3.80;99.90;;;3.70;66.15;97563.84;5016694;28;20389;-80
2021/12/25 02:02:54;;;;;;;;;;;3.80;99.90;;;3.60;66.24;97563.78;5027503;28;20403;-80
2021/12/25 02:05:20;;;;;;;;;;;3.70;99.90;;;3.61;66.30;97573.47;5014619;28;20342;-80
2021/12/25 02:07:46;;;;;;;;;;;3.70;99.90;;;3.58;66.58;97576.63;5017261;28;19925;-80
2021/12/25 02:10:12;;;;;;;;;;;3.70;99.90;;;3.54;67.01;97585.47;5017339;28;19929;-80
2021/12/25 02:12:38;;;;;;;;;;;3.60;99.90;;;3.46;67.50;97589.41;5034429;28;19932;-80
2021/12/25 02:15:11;;;;;;;;;;;3.50;99.90;;;3.38;68.13;97581.88;5015609;28;19925;-80
2021/12/25 02:18:08;;;;;;;;;;;3.50;99.90;;;3.42;67.81;97566.91;5016188;28;19929;-80
2021/12/25 02:20:30;;;;;;;;;;;3.50;99.90;;;3.41;67.70;97587.53;5018601;28;20011;-80
2021/12/25 02:23:02;;;;;;;;;;;3.50;99.90;;;3.36;68.05;97589.34;5001110;28;19925;-80
2021/12/25 02:25:30;;;;;;;;;;;3.50;99.90;;;3.37;68.33;97596.34;5001931;28;20349;-80
2021/12/25 02:27:56;;;;;;;;;;;3.40;99.90;;;3.33;68.29;97609.44;5015581;28;19967;-80
2021/12/25 02:30:22;;;;;;;;;;;3.40;99.90;;;3.36;68.36;97616.16;5010147;28;19934;-80
2021/12/25 02:32:48;;;;;;;;;;;3.40;99.90;;;3.44;68.11;97619.19;5013960;28;19969;-80
2021/12/25 02:35:14;;;;;;;;;;;3.40;99.90;;;3.30;68.69;97617.19;5020549;28;19925;-80
2021/12/25 02:37:40;;;;;;;;;;;3.30;99.90;;;3.32;68.27;97620.44;5001259;28;19928;-80
2021/12/25 02:40:07;;;;;;;;;;;3.30;99.90;;;3.29;68.70;97628.97;5017615;28;20467;-80
2021/12/25 02:42:34;;;;;;;;;;;3.30;99.90;;;3.26;68.10;97636.47;5018118;28;19968;-80
2021/12/25 02:45:00;;;;;;;;;;;3.30;99.90;;;3.40;68.37;97633.34;5034684;28;20114;-80
2021/12/25 02:47:29;;;;;;;;;;;3.20;99.90;;;3.30;67.91;97631.38;5036809;28;19928;-80
2021/12/25 02:49:55;;;;;;;;;;;3.20;99.90;;;3.17;68.64;97637.97;5033946;28;19935;-80
2021/12/25 02:52:21;;;;;;;;;;;3.20;99.90;;;3.15;68.52;97652.69;5006140;28;19928;-80
2021/12/25 02:54:47;;;;;;;;;;;3.20;99.90;;;3.19;68.44;97662.66;5021065;28;19960;-80
2021/12/25 02:57:13;;;;;;;;;;;3.20;99.90;;;3.29;68.05;97659.25;5001777;28;19929;-80
2021/12/25 02:59:39;;;;;;;;;;;3.20;99.90;;;3.16;67.90;97668.53;5033830;28;19932;-80
2021/12/25 03:02:10;;;;;;;;;;;3.10;99.90;;;3.13;67.79;97669.03;5005898;28;20299;-80
2021/12/25 03:04:39;;;;;;;;;;;3.10;99.90;;;3.17;67.30;97675.50;5003911;28;19936;-80
2021/12/25 03:07:04;;;;;;;;;;;3.10;99.90;;;3.16;67.44;97670.41;5032089;28;20623;-80
2021/12/25 03:09:31;;;;;;;;;;;3.10;99.90;;;3.33;66.74;97681.81;5033174;28;19932;-80
2021/12/25 03:11:57;;;;;;;;;;;3.20;99.90;;;3.34;67.00;97680.75;5005132;28;20299;-80
2021/12/25 03:14:36;;;;;;;;;;;3.20;99.90;;;3.25;66.56;97677.72;4984705;28;19925;-80
2021/12/25 03:17:02;;;;;;;;;;;3.20;99.90;;;3.44;67.16;97680.03;5006542;28;19924;-80
2021/12/25 03:19:32;;;;;;;;;;;3.20;99.90;;;3.31;66.56;97672.41;5000656;28;19951;-80
2021/12/25 03:22:02;;;;;;;;;;;3.30;99.90;;;3.38;66.92;97676.47;5007972;28;20415;-80
2021/12/25 03:24:28;;;;;;;;;;;3.30;99.90;;;3.45;67.00;97689.69;5033589;28;20427;-80
2021/12/25 03:26:56;;;;;;;;;;;3.30;99.90;;;3.46;66.63;97691.28;5038353;28;20023;-80
2021/12/25 03:29:25;;;;;;;;;;;3.40;99.90;;;3.40;66.49;97692.31;5019739;28;19982;-80
2021/12/25 03:31:51;;;;;;;;;;;3.40;99.90;;;3.42;66.10;97691.00;5033545;28;19931;-80
2021/12/25 03:34:17;;;;;;;;;;;3.40;99.90;;;3.34;65.84;97707.56;5033228;28;19928;-81
2021/12/25 03:36:43;;;;;;;;;;;3.40;99.90;;;3.32;65.13;97707.00;5007654;28;19935;-80
2021/12/25 03:39:09;;;;;;;;;;;3.40;99.90;;;3.25;65.12;97707.19;5039265;28;20012;-80
2021/12/25 03:41:35;;;;;;;;;;;3.30;99.90;;;3.20;64.41;97709.81;5031706;28;20364;-80
2021/12/25 03:44:01;;;;;;;;;;;3.20;99.90;;;3.07;62.76;97722.81;5018856;28;20644;-80
2021/12/25 03:46:31;;;;;;;;;;;3.20;99.90;;;2.37;61.70;97728.66;5023184;28;19925;-80
2021/12/25 03:49:04;;;;;;;;;;;3.00;99.90;;;1.95;63.07;97737.13;5039206;28;19929;-80
2021/12/25 03:59:48;;;;;;;;;;;1.80;99.90;;;1.57;63.97;97753.09;5037416;28;19996;-80
2021/12/25 04:02:20;;;;;;;;;;;1.80;99.90;;;1.50;64.60;97762.09;4999509;28;19929;-80
2021/12/25 04:04:48;;;;;;;;;;;1.70;99.90;;;1.49;63.48;97771.13;5034961;28;19967;-80
2021/12/25 04:07:42;;;;;;;;;;;1.70;99.90;;;1.62;62.67;97774.56;5038265;28;20596;-80
2021/12/25 04:10:03;;;;;;;;;;;1.60;99.90;;;1.48;62.66;97780.22;5023649;28;19983;-80
2021/12/25 04:12:30;;;;;;;;;;;1.50;99.90;;;1.44;62.69;97781.72;5023096;28;19975;-80
2021/12/25 04:14:56;;;;;;;;;;;1.50;99.90;;;1.25;63.15;97801.69;5010081;28;19932;-80
2021/12/25 04:17:22;;;;;;;;;;;1.40;99.90;;;1.22;63.65;97810.16;5020832;28;19935;-80
2021/12/25 04:19:48;;;;;;;;;;;1.30;99.90;;;1.33;63.52;97813.88;5022515;28;19932;-80
2021/12/25 04:22:19;;;;;;;;;;;1.30;99.90;;;1.32;63.62;97813.03;5022466;28;19925;-79
2021/12/25 04:24:47;;;;;;;;;;;1.40;99.90;;;1.32;63.52;97812.22;5008084;28;19925;-80
2021/12/25 04:27:16;;;;;;;;;;;1.40;99.90;;;1.32;62.99;97823.72;5024562;28;20670;-80
2021/12/25 05:02:02;;;;;;;;;;;0.80;99.90;;;0.67;61.14;97886.19;5041050;28;20054;-80
2021/12/25 05:04:36;;;;;;;;;;;0.70;99.90;;;0.68;61.23;97895.81;5021781;28;19928;-80
2021/12/25 05:07:04;;;;;;;;;;;0.80;99.90;;;0.63;60.72;97893.84;5031098;28;19937;-80
2021/12/25 05:09:30;;;;;;;;;;;0.80;99.90;;;0.61;60.09;97895.09;5040248;28;19933;-80
2021/12/25 05:11:56;;;;;;;;;;;0.70;99.90;;;0.59;60.95;97902.56;5027115;28;19950;-80
2021/12/25 05:14:22;;;;;;;;;;;0.70;99.90;;;0.56;60.21;97901.16;5027320;28;20007;-80
2021/12/25 05:16:48;;;;;;;;;;;0.70;99.90;;;0.47;59.86;97901.72;5008463;28;20582;-79
2021/12/25 05:19:14;;;;;;;;;;;0.60;99.90;;;0.48;59.38;97901.47;5021488;28;19931;-80
2021/12/25 05:21:40;;;;;;;;;;;0.60;99.90;;;0.43;59.82;97902.19;5009926;28;19963;-79
2021/12/25 05:24:06;;;;;;;;;;;0.60;99.90;;;0.43;60.77;97904.88;5009004;28;20589;-79
2021/12/25 05:26:32;;;;;;;;;;;0.50;99.90;;;0.47;59.86;97915.88;5018462;28;19936;-79
2021/12/25 05:29:00;;;;;;;;;;;0.50;99.90;;;0.34;60.25;97921.44;5036722;28;19925;-79
2021/12/25 05:31:27;;;;;;;;;;;0.50;99.90;;;0.33;60.73;97920.63;5026894;28;19928;-79
2021/12/25 05:33:53;;;;;;;;;;;0.40;99.90;;;0.35;60.74;97931.06;5043066;28;20014;-79
2021/12/25 05:36:19;;;;;;;;;;;0.40;99.90;;;0.35;60.68;97925.72;5039458;28;19939;-79
2021/12/25 05:38:45;;;;;;;;;;;0.40;99.90;;;0.35;60.91;97931.06;5040020;28;19925;-79
2021/12/25 05:41:11;;;;;;;;;;;0.40;99.90;;;0.40;61.10;97929.31;5023355;28;19939;-80
2021/12/25 05:43:38;;;;;;;;;;;0.50;99.90;;;0.50;61.79;97939.44;5024807;28;19992;-82
2021/12/25 05:46:03;;;;;;;;;;;0.50;99.90;;;0.57;60.96;97934.81;5029737;28;19928;-82
2021/12/25 05:48:35;;;;;;;;;;;0.60;99.90;;;0.57;60.91;97945.47;5053951;28;19924;-81
2021/12/25 05:51:04;;;;;;;;;;;0.70;99.90;;;0.46;59.67;97950.78;5025373;28;20002;-82
2021/12/25 05:53:31;;;;;;;;;;;0.70;99.90;;;0.31;60.28;97961.91;5024527;28;19984;-81
2021/12/25 05:55:56;;;;;;;;;;;0.60;99.90;;;0.36;60.80;97944.16;5002171;28;20027;-82
2021/12/25 05:58:22;;;;;;;;;;;0.60;99.90;;;0.33;61.19;97949.13;5008756;28;19955;-81
2021/12/25 06:00:48;;;;;;;;;;;0.50;99.90;;;0.29;60.55;97955.97;5020594;28;19929;-81
2021/12/25 06:03:14;;;;;;;;;;;0.50;99.90;;;0.21;60.48;97960.59;5024128;28;19937;-81
2021/12/25 06:05:40;;;;;;;;;;;0.40;99.90;;;0.28;60.65;97960.50;5037418;28;20467;-81
2021/12/25 06:08:06;;;;;;;;;;;0.40;99.90;;;0.29;60.72;97966.66;5023182;28;19924;-81
2021/12/25 06:10:32;;;;;;;;;;;0.40;99.90;;;0.27;59.77;97971.41;5023438;28;20037;-81
2021/12/25 06:12:59;;;;;;;;;;;0.40;99.90;;;0.20;60.56;97982.97;5020541;28;19932;-81
2021/12/25 06:15:26;;;;;;;;;;;0.40;99.90;;;0.23;60.42;97981.72;5034580;28;20428;-81
2021/12/25 06:17:52;;;;;;;;;;;0.40;99.90;;;0.10;60.47;97981.88;5022476;28;19929;-83
2021/12/25 06:20:18;;;;;;;;;;;0.40;99.90;;;0.12;60.87;97991.28;5023823;28;19929;-81
2021/12/25 06:22:44;;;;;;;;;;;0.40;99.90;;;-0.04;60.33;97990.06;5026224;28;19950;-81
2021/12/25 06:25:10;;;;;;;;;;;0.40;99.90;;;-0.20;60.59;97992.53;5023165;28;19944;-84
2021/12/25 06:27:36;;;;;;;;;;;0.30;99.90;;;-0.38;59.77;98002.19;5037502;28;19925;-81
2021/12/25 06:30:02;;;;;;;;;;;0.20;99.90;;;-0.58;59.41;98009.56;5023620;28;19929;-81
2021/12/25 06:32:27;;;;;;;;;;;0.10;99.90;;;-0.66;60.04;98024.00;5025002;28;20308;-81
2021/12/25 06:34:53;;;;;;;;;;;-0.10;99.90;;;-0.69;60.19;98019.94;5018945;28;19992;-82
2021/12/25 06:37:20;;;;;;;;;;;-0.20;99.90;;;-0.63;60.66;98025.41;5004142;28;19930;-81
2021/12/25 06:39:47;;;;;;;;;;;-0.30;99.90;;;-0.73;59.43;98024.06;5019780;28;19948;-81
2021/12/25 06:42:13;;;;;;;;;;;-0.40;99.90;;;-0.75;60.19;98039.44;5031061;28;20461;-81
2021/12/25 06:44:39;;;;;;;;;;;-0.40;99.90;;;-0.80;60.38;98041.94;5021937;28;19925;-81
2021/12/25 06:47:05;;;;;;;;;;;-0.50;99.90;;;-0.84;59.80;98035.44;5036834;28;19937;-81
2021/12/25 06:49:31;;;;;;;;;;;-0.50;99.90;;;-0.92;59.19;98043.69;5021043;28;19935;-81
2021/12/25 06:51:57;;;;;;;;;;;-0.50;99.90;;;-1.04;59.37;98043.59;5023112;28;19924;-82
2021/12/25 06:54:22;;;;;;;;;;;-0.60;99.90;;;-1.07;59.72;98064.50;5040391;28;19925;-81
2021/12/25 06:56:49;;;;;;;;;;;-0.60;99.90;;;-0.99;60.26;98062.38;5037692;28;19982;-82
2021/12/25 06:59:15;;;;;;;;;;;-0.70;99.90;;;-0.93;59.48;98064.16;5008078;28;19952;-81
2021/12/25 07:01:41;;;;;;;;;;;-0.70;99.90;;;-0.85;59.58;98067.59;5040182;28;19951;-81
2021/12/25 07:04:07;;;;;;;;;;;-0.70;99.90;;;-0.89;58.17;98069.88;5038492;28;20029;-81
2021/12/25 07:06:34;;;;;;;;;;;-0.60;99.90;;;-0.88;57.74;98066.19;5013633;28;19996;-79
2021/12/25 07:09:00;;;;;;;;;;;-0.60;99.90;;;-0.88;57.97;98068.84;5035784;28;20388;-80
2021/12/25 07:11:26;;;;;;;;;;;-0.60;99.90;;;-0.88;57.64;98061.66;5002732;28;20012;-79
2021/12/25 07:13:52;;;;;;;;;;;-0.60;99.90;;;-0.85;56.95;98064.94;5022638;28;19924;-80
2021/12/25 07:16:18;;;;;;;;;;;-0.60;99.90;;;-0.90;57.11;98069.06;5023431;28;19929;-79
2021/12/25 07:18:44;;;;;;;;;;;-0.50;99.90;;;-0.95;56.56;98071.56;5025249;28;19933;-79
2021/12/25 07:21:10;;;;;;;;;;;-0.40;99.90;;;-1.07;56.74;98080.47;5021013;28;20596;-79
2021/12/25 07:23:36;;;;;;;;;;;-0.40;99.90;;;-1.04;57.60;98082.69;5023715;28;19929;-79
2021/12/25 07:26:02;;;;;;;;;;;-0.60;99.90;;;-1.04;56.51;98083.53;5025019;28;19956;-80
2021/12/25 07:28:30;;;;;;;;;;;-0.60;99.90;;;-1.03;56.03;98092.31;5004029;28;19924;-80
2021/12/25 07:30:58;;;;;;;;;;;-0.60;99.90;;;-0.99;56.75;98088.16;5029965;28;19933;-79
2021/12/25 07:33:24;;;;;;;;;;;-0.60;99.90;;;-0.96;56.02;98099.22;5002031;28;20031;-79
2021/12/25 07:35:50;;;;;;;;;;;-0.60;99.90;;;-0.96;55.68;98109.06;5013383;28;19929;-79
2021/12/25 07:38:18;;;;;;;;;;;-0.50;99.90;;;-0.89;56.07;98091.16;5038945;28;19928;-79
2021/12/25 07:40:45;;;;;;;;;;;-0.50;99.90;;;-0.89;56.09;98092.00;5014656;28;19925;-79
2021/12/25 07:43:10;;;;;;;;;;;-0.50;99.90;;;-1.02;55.36;98097.41;5032948;28;20468;-82
2021/12/25 07:45:36;;;;;;;;;;;-0.40;99.90;;;-1.02;55.80;98105.38;4998823;28;19937;-79
2021/12/25 07:48:03;;;;;;;;;;;-0.50;99.90;;;-1.04;55.08;98102.16;5005794;28;19929;-79
2021/12/25 07:50:32;;;;;;;;;;;-0.40;99.90;;;-1.06;54.92;98104.22;5000430;28;19931;-79
2021/12/25 07:52:58;;;;;;;;;;;-0.50;99.90;;;-0.98;55.28;98105.78;4995445;28;20399;-79
2021/12/25 07:55:27;;;;;;;;;;;-0.50;99.90;;;-0.92;55.48;98123.56;5020462;28;19964;-79
2021/12/25 07:57:53;;;;;;;;;;;-0.50;99.90;;;-0.92;54.85;98131.53;5035150;28;19929;-79
2021/12/25 08:00:19;;;;;;;;;;;-0.40;99.90;;;-0.96;54.28;98139.16;4998200;28;20541;-79
2021/12/25 08:02:45;;;;;;;;;;;-0.30;99.90;;;-0.94;54.71;98134.44;5030224;28;20411;-79
2021/12/25 08:05:11;;;;;;;;;;;-0.30;99.90;;;-0.83;54.98;98140.09;5036261;28;19975;-79
2021/12/25 08:07:37;;;;;;;;;;;-0.30;99.90;;;-0.78;53.73;98143.72;5018288;28;19959;-79
2021/12/25 08:10:13;;;;;;;;;;;-0.30;99.90;;;-0.72;53.59;98147.38;5002022;28;20024;-79
2021/12/25 08:12:59;;;;;;;;;;;-0.20;99.90;;;-0.68;53.76;98151.25;5020211;28;19929;-79
2021/12/25 08:15:27;;;;;;;;;;;-0.20;99.90;;;-0.57;53.74;98136.41;5013043;28;19936;-79
2021/12/25 08:17:54;;;;;;;;;;;-0.10;99.90;;;-0.40;52.93;98137.47;5007255;28;19936;-79
2021/12/25 08:20:19;;;;;;;;;;;0.00;99.90;;;-0.33;51.94;98137.41;5017592;28;20293;-79
2021/12/25 08:22:45;;;;;;;;;;;0.20;99.90;;;-0.21;51.93;98146.31;5020883;28;20107;-79
2021/12/25 08:25:13;;;;;;;;;;;0.30;99.90;;;-0.12;51.96;98149.53;5017952;28;19940;-79
2021/12/25 08:27:39;;;;;;;;;;;0.40;99.90;;;-0.06;51.71;98148.63;5018895;28;19935;-79
2021/12/25 08:30:11;;;;;;;;;;;0.50;99.90;;;0.06;50.83;98159.38;5034330;28;19976;-79
2021/12/25 08:32:38;;;;;;;;;;;0.60;99.90;;;0.07;51.67;98150.34;5036190;28;20372;-79
2021/12/25 08:35:04;;;;;;;;;;;0.60;99.90;;;0.25;50.83;98152.19;5019538;28;19963;-79
2021/12/25 08:37:31;;;;;;;;;;;0.70;99.90;;;0.32;50.55;98171.59;5037764;28;19951;-80
2021/12/25 08:39:57;;;;;;;;;;;0.90;99.90;;;0.32;50.87;98171.59;5007381;28;19935;-80
2021/12/25 08:42:23;;;;;;;;;;;0.90;99.90;;;0.51;50.74;98169.72;5023785;28;20023;-80
2021/12/25 08:45:04;;;;;;;;;;;1.00;99.90;;;0.58;50.43;98167.78;5015339;28;19933;-80
2021/12/25 08:47:35;;;;;;;;;;;1.10;99.90;;;0.57;49.61;98169.66;5028361;28;19936;-80
2021/12/25 08:50:06;;;;;;;;;;;1.10;99.90;;;0.59;49.93;98175.59;5044491;28;20364;-79
2021/12/25 08:52:32;;;;;;;;;;;1.10;99.90;;;0.70;49.36;98183.88;5041747;28;20015;-80
2021/12/25 08:54:58;;;;;;;;;;;1.10;99.90;;;0.59;48.67;98182.78;5027065;28;20279;-80
2021/12/25 08:57:24;;;;;;;;;;;1.20;99.60;;;0.57;49.21;98174.19;5044442;28;19963;-80
2021/12/25 08:59:55;;;;;;;;;;;1.10;99.60;;;0.62;49.06;98171.66;5010975;28;19929;-80
2021/12/25 09:02:21;;;;;;;;;;;1.10;99.50;;;0.57;49.19;98183.00;5021635;28;19932;-82
2021/12/25 09:04:47;;;;;;;;;;;1.10;99.30;;;0.53;49.29;98181.00;5021484;28;19982;-82
2021/12/25 09:07:13;;;;;;;;;;;1.20;99.30;;;0.60;49.01;98179.06;5023224;28;20550;-80
2021/12/25 09:09:39;;;;;;;;;;;1.20;99.30;;;0.73;49.49;98192.25;5037916;28;19925;-80
2021/12/25 09:12:06;;;;;;;;;;;1.20;99.60;;;0.82;48.77;98195.44;5040371;28;20035;-81
2021/12/25 09:14:32;;;;;;;;;;;1.30;99.20;;;0.81;47.42;98191.13;5028001;28;19931;-81
2021/12/25 09:16:58;;;;;;;;;;;1.40;97.90;;;0.72;46.22;98189.81;5009225;28;20272;-81
2021/12/25 09:19:24;;;;;;;;;;;1.40;96.50;;;0.70;46.34;98190.03;5002723;28;19929;-81
2021/12/25 09:21:50;;;;;;;;;;;1.40;96.50;;;0.94;46.60;98185.63;5020676;28;19989;-80
2021/12/25 09:24:16;;;;;;;;;;;1.40;96.60;;;1.15;45.42;98170.13;5025352;28;19929;-81
2021/12/25 09:26:42;;;;;;;;;;;1.60;96.10;;;1.23;44.99;98177.81;5042253;28;19928;-81
2021/12/25 09:29:08;;;;;;;;;;;1.70;95.50;;;1.33;45.02;98174.59;5039461;28;19925;-81
2021/12/25 09:31:34;;;;;;;;;;;1.80;95.20;;;1.21;43.89;98175.34;5025201;28;19951;-81
2021/12/25 09:34:00;;;;;;;;;;;1.90;94.10;;;1.25;44.83;98187.22;5019784;28;20031;-81
2021/12/25 09:36:30;;;;;;;;;;;1.90;94.20;;;1.21;44.50;98187.91;5018624;28;19928;-81
2021/12/25 09:38:56;;;;;;;;;;;2.00;94.00;;;1.47;44.59;98195.50;5037668;28;20626;-81
2021/12/25 09:41:23;;;;;;;;;;;2.00;94.60;;;1.65;43.24;98199.13;5006677;28;19967;-81
2021/12/25 09:43:49;;;;;;;;;;;2.10;93.60;;;1.74;43.84;98181.72;5023738;28;19928;-81
2021/12/25 09:46:16;;;;;;;;;;;2.20;93.60;;;1.80;43.85;98174.63;5025060;28;19931;-81
2021/12/25 09:48:43;;;;;;;;;;;2.20;93.70;;;1.88;42.72;98171.59;5025317;28;20521;-80
2021/12/25 09:51:08;;;;;;;;;;;2.40;92.40;;;2.09;42.93;98178.25;5021956;28;19936;-81
2021/12/25 09:53:34;;;;;;;;;;;2.60;92.70;;;2.42;43.47;98177.63;5003395;28;20007;-81
2021/12/25 09:56:02;;;;;;;;;;;2.90;92.90;;;2.73;42.91;98186.25;5019923;28;20048;-81
2021/12/25 09:58:28;;;;;;;;;;;3.20;92.60;;;2.71;41.54;98177.66;5038304;28;19925;-81
2021/12/25 10:00:54;;;;;;;;;;;3.30;91.00;;;2.61;41.81;98170.22;5018128;28;19936;-81
2021/12/25 10:03:20;;;;;;;;;;;3.40;90.70;;;2.64;42.14;98169.75;5003998;28;19924;-81
2021/12/25 10:05:47;;;;;;;;;;;3.40;91.00;;;2.72;41.33;98158.69;5009922;28;20307;-81
2021/12/25 10:08:26;;;;;;;;;;;3.40;90.10;;;2.95;41.58;98160.44;5010866;28;20035;-81
2021/12/25 10:10:54;;;;;;;;;;;3.50;90.60;;;3.03;40.05;98156.56;5030490;28;20418;-81
2021/12/25 10:13:36;;;;;;;;;;;3.60;89.40;;;3.07;40.03;98155.00;5033294;28;19939;-81
2021/12/25 10:16:25;;;;;;;;;;;3.70;88.90;;;2.90;39.80;98152.31;5032599;28;20032;-81
2021/12/25 10:18:52;;;;;;;;;;;3.70;86.90;;;3.12;40.39;98152.41;5039788;28;19978;-81
2021/12/25 10:21:23;;;;;;;;;;;3.70;87.90;;;3.26;38.05;98150.25;5017711;28;19964;-81
2021/12/25 10:24:13;;;;;;;;;;;3.80;85.50;;;3.10;39.91;98159.88;5016006;28;19951;-81
2021/12/25 10:26:40;;;;;;;;;;;3.70;85.50;;;3.10;40.24;98154.53;5002683;28;20024;-81
2021/12/25 10:29:22;;;;;;;;;;;3.70;85.80;;;3.04;40.59;98150.13;5031971;28;20368;-81
2021/12/25 10:31:49;;;;;;;;;;;3.60;86.30;;;3.05;39.79;98143.72;5033534;28;19962;-81
2021/12/25 10:34:18;;;;;;;;;;;3.70;86.50;;;2.79;39.77;98145.13;5020776;28;19928;-81
2021/12/25 10:36:44;;;;;;;;;;;3.60;85.30;;;2.63;40.14;98148.56;5022154;28;19929;-80
2021/12/25 10:39:21;;;;;;;;;;;3.50;85.40;;;2.73;41.00;98154.13;5013772;28;19936;-81
2021/12/25 10:41:57;;;;;;;;;;;3.40;85.80;;;2.78;40.37;98151.53;5014589;28;19929;-80
2021/12/25 10:44:29;;;;;;;;;;;3.50;85.30;;;2.69;40.21;98156.44;5049974;28;20020;-81
2021/12/25 10:46:56;;;;;;;;;;;3.50;85.50;;;2.78;40.40;98162.25;5019443;28;19929;-81
2021/12/25 10:49:25;;;;;;;;;;;3.50;85.30;;;2.94;40.05;98166.03;5016934;28;19982;-81
2021/12/25 10:51:51;;;;;;;;;;;3.70;84.40;;;3.19;40.53;98163.00;5033569;28;19939;-81
2021/12/25 10:54:18;;;;;;;;;;;3.90;84.80;;;3.51;39.42;98157.09;5031259;28;19939;-81
2021/12/25 10:56:46;;;;;;;;;;;4.20;84.60;;;3.62;39.07;98167.75;5020341;28;19928;-81
2021/12/25 10:59:14;;;;;;;;;;;4.40;83.40;;;3.50;39.52;98166.19;5018540;28;19971;-81
2021/12/25 11:01:43;;;;;;;;;;;4.40;83.00;;;3.45;38.76;98166.91;5048102;28;19932;-80
2021/12/25 11:04:44;;;;;;;;;;;4.40;81.50;;;3.24;38.88;98163.91;5001802;28;19979;-80
2021/12/25 11:07:15;;;;;;;;;;;4.20;80.00;;;3.23;38.66;98164.13;4973528;28;20500;-80
2021/12/25 11:09:41;;;;;;;;;;;4.10;80.30;;;3.06;39.20;98166.78;5003521;28;19933;-80
2021/12/25 11:12:15;;;;;;;;;;;4.00;81.20;;;2.81;39.53;98167.94;5031233;28;20058;-80
2021/12/25 11:14:43;;;;;;;;;;;3.80;80.80;;;2.77;39.34;98163.28;5002504;28;20024;-81
2021/12/25 11:17:25;;;;;;;;;;;3.60;81.30;;;2.36;39.76;98157.94;5024448;28;20332;-81
2021/12/25 11:20:00;;;;;;;;;;;3.50;80.70;;;2.38;40.26;98168.41;5015681;28;20519;-80
2021/12/25 11:22:27;;;;;;;;;;;3.20;82.70;;;2.41;39.48;98173.28;5018309;28;20332;-80
2021/12/25 11:24:54;;;;;;;;;;;3.10;81.00;;;2.46;39.22;98169.91;5027532;28;19925;-81
2021/12/25 11:27:21;;;;;;;;;;;3.10;81.10;;;2.66;40.53;98175.69;5004323;28;19971;-81
2021/12/25 11:29:47;;;;;;;;;;;3.10;82.90;;;2.59;41.83;98172.31;5021569;28;19929;-81
2021/12/25 11:32:13;;;;;;;;;;;3.10;85.50;;;2.44;41.89;98161.28;5003779;28;19929;-81
2021/12/25 11:34:39;;;;;;;;;;;3.10;86.10;;;2.29;42.78;98154.59;5037005;28;19929;-80
2021/12/25 11:37:05;;;;;;;;;;;3.00;86.60;;;2.41;42.66;98151.06;5022182;28;19925;-81
2021/12/25 11:39:31;;;;;;;;;;;3.00;87.40;;;2.31;43.01;98151.66;5038167;28;19932;-80
2021/12/25 11:42:04;;;;;;;;;;;2.90;87.40;;;2.09;42.90;98146.94;5023956;28;19981;-80
2021/12/25 11:44:45;;;;;;;;;;;2.80;87.30;;;2.11;43.99;98142.19;5021219;28;20040;-80
2021/12/25 11:47:40;;;;;;;;;;;2.70;88.20;;;2.11;43.34;98147.53;5041310;28;19932;-81
2021/12/25 11:50:11;;;;;;;;;;;2.70;88.80;;;2.11;44.35;98141.34;5046749;28;19952;-80
2021/12/25 11:52:53;;;;;;;;;;;2.70;89.50;;;1.97;43.94;98148.00;5015342;28;19976;-80
2021/12/25 11:58:19;;;;;;;;;;;2.50;88.30;;;1.64;44.09;98152.06;5017100;28;19928;-80
2021/12/25 12:00:47;;;;;;;;;;;2.40;88.10;;;1.71;43.65;98152.78;5011616;28;19935;-80
2021/12/25 12:03:39;;;;;;;;;;;2.30;88.60;;;1.71;44.87;98161.59;5040956;28;20482;-80
2021/12/25 12:06:05;;;;;;;;;;;2.30;89.50;;;1.76;44.74;98170.81;5035932;28;19929;-80
2021/12/25 12:08:53;;;;;;;;;;;2.30;90.10;;;1.67;44.54;98173.81;5033206;28;20019;-80
2021/12/25 12:11:23;;;;;;;;;;;2.30;90.10;;;1.54;44.54;98181.25;5050698;28;20047;-80
2021/12/25 12:14:26;;;;;;;;;;;2.20;90.00;;;1.52;44.47;98184.94;5040525;28;19929;-80
2021/12/25 12:16:53;;;;;;;;;;;2.20;89.90;;;1.83;45.06;98188.38;5036444;28;19928;-80
2021/12/25 12:22:16;;;;;;;;;;;2.30;90.40;;;1.86;45.04;98168.38;5052152;28;20341;-80
2021/12/25 12:25:13;;;;;;;;;;;2.30;90.30;;;1.90;45.08;98162.28;5022007;28;19968;-80
2021/12/25 12:27:36;;;;;;;;;;;2.40;90.50;;;1.90;45.68;98166.84;5022379;28;20276;-81
2021/12/25 12:30:04;;;;;;;;;;;2.40;90.90;;;1.74;44.83;98166.50;5037404;28;20004;-80
2021/12/25 12:32:43;;;;;;;;;;;2.40;90.20;;;1.74;45.04;98184.41;5036499;28;20387;-80
2021/12/25 12:35:36;;;;;;;;;;;2.40;90.40;;;1.72;45.47;98189.16;5021337;28;20323;-81
2021/12/25 12:38:27;;;;;;;;;;;2.30;90.60;;;1.83;45.71;98190.19;5039783;28;20221;-80
2021/12/25 12:41:15;;;;;;;;;;;2.30;91.00;;;1.63;44.63;98190.53;5039161;28;19933;-80
2021/12/25 12:44:09;;;;;;;;;;;2.30;90.30;;;1.38;45.14;98191.56;5036176;28;19973;-80
2021/12/25 12:46:50;;;;;;;;;;;2.20;90.20;;;1.30;46.22;98190.03;5038374;28;19928;-80
2021/12/25 12:49:25;;;;;;;;;;;2.00;90.90;;;1.31;46.49;98198.84;5053704;28;19940;-80
2021/12/25 12:52:09;;;;;;;;;;;1.90;91.30;;;1.28;46.46;98200.13;5050601;28;19940;-80